Semaya — EAFT — position and weather

sailwx.info

Track history (hours):
 
Tides and Currents Weather Stations Pressure Air Temp Water Temp Dewpoint Dewpoint Depression Visibility Wind Speed Wind Dir Waves Ship Positions

Semaya

Last reported at 2018-Jun-16 19:41 UTC. Time now 2018-Jun-24 03:42 UTC.
Position N 38°46' E 001°26'.

Length 30 m; draft 2.7 m.

Type: Pleasure craft. MMSI: 224532980.

Date/timePositionNaut miles runAvg speedWind from/ knotsBaromVisibWave heightAir tempDewpointWater temp
2018-Jun-16 19:41N 38°46' E 001°26'9 0.3
2018-Jun-15 18:48N 38°55' E 001°28'0 0.0
2018-Jun-15 18:29N 38°55' E 001°28'0 0.0
2018-Jun-15 17:58N 38°55' E 001°28'2 0.1
2018-Jun-14 08:11N 38°53' E 001°27'1 7.3
2018-Jun-14 07:59N 38°54' E 001°28'0 0.9
2018-Jun-14 07:29N 38°55' E 001°28'0 0.0
2018-Jun-14 06:59N 38°55' E 001°28'0 0.0
2018-Jun-14 03:26N 38°55' E 001°28'0 0.0
2018-Jun-13 22:05N 38°55' E 001°28'0 0.0
2018-Jun-13 21:59N 38°55' E 001°28'0 0.0
2018-Jun-13 17:53N 38°55' E 001°28'0 0.0
2018-Jun-13 15:08N 38°55' E 001°28'0 0.0
2018-Jun-13 12:23N 38°55' E 001°28'0 0.0
2018-Jun-13 08:42N 38°55' E 001°28'0 0.0
2018-Jun-13 07:28N 38°55' E 001°28'0 0.0
2018-Jun-13 04:45N 38°55' E 001°28'0 0.0
2018-Jun-13 03:40N 38°55' E 001°28'0 0.0
2018-Jun-13 01:39N 38°55' E 001°28'0 0.0
2018-Jun-13 01:12N 38°55' E 001°28'0 0.0
2018-Jun-12 10:06N 38°55' E 001°28'0 0.0
2018-Jun-12 09:45N 38°55' E 001°28'0 0.0
2018-Jun-12 09:24N 38°55' E 001°28'0 0.0
2018-Jun-12 06:04N 38°55' E 001°28'0 0.2
2018-Jun-12 06:00N 38°55' E 001°28'0 0.0
2018-Jun-12 05:31N 38°55' E 001°28'0 0.0
2018-Jun-12 05:01N 38°55' E 001°28'0 0.0
2018-Jun-12 04:28N 38°55' E 001°28'0 0.0
2018-Jun-12 03:57N 38°55' E 001°28'0 0.0
2018-Jun-12 03:30N 38°55' E 001°28'0 0.0
2018-Jun-12 03:00N 38°55' E 001°28'0 0.0
2018-Jun-12 02:30N 38°55' E 001°28'0 0.0
2018-Jun-12 01:57N 38°55' E 001°28'0 0.0
2018-Jun-12 01:27N 38°55' E 001°28'0 0.0
2018-Jun-12 01:01N 38°55' E 001°28'0 0.0
2018-Jun-12 00:31N 38°55' E 001°28'0 0.0
2018-Jun-12 00:00N 38°55' E 001°28'0 0.0
2018-Jun-11 23:30N 38°55' E 001°28'0 0.0
2018-Jun-11 22:58N 38°55' E 001°28'0 0.0
2018-Jun-11 22:24N 38°55' E 001°28'0 0.0
2018-Jun-11 21:57N 38°55' E 001°28'0 0.0
2018-Jun-11 20:10N 38°55' E 001°28'0 0.0
2018-Jun-11 19:49N 38°55' E 001°28'0 0.0
2018-Jun-11 19:22N 38°55' E 001°28'0 0.0
2018-Jun-11 18:57N 38°55' E 001°28'0 0.0
2018-Jun-11 18:19N 38°55' E 001°28'0 0.0
2018-Jun-11 18:00N 38°55' E 001°28'0 0.0
2018-Jun-11 17:28N 38°55' E 001°28'0 0.0
2018-Jun-11 16:57N 38°55' E 001°28'0 0.0
2018-Jun-11 16:24N 38°55' E 001°28'0 0.0
2018-Jun-11 16:00N 38°55' E 001°28'0 0.0
2018-Jun-11 15:30N 38°55' E 001°28'0 0.0
2018-Jun-11 15:00N 38°55' E 001°28'0 0.0
2018-Jun-11 14:30N 38°55' E 001°28'0 0.0
2018-Jun-11 11:59N 38°55' E 001°28'0 0.0
2018-Jun-11 11:29N 38°55' E 001°28'0 0.0
2018-Jun-11 10:56N 38°55' E 001°28'0 0.0
2018-Jun-11 10:13N 38°55' E 001°28'2 6.1
2018-Jun-11 09:51N 38°52' E 001°28'3 8.0
2018-Jun-11 09:29N 38°50' E 001°29'  
Track history (hours):
 
Tides and Currents Weather Stations Pressure Air Temp Water Temp Dewpoint Dewpoint Depression Visibility Wind Speed Wind Dir Waves Ship Positions

Semaya

Last reported at 2018-Jun-16 19:41 UTC. Time now 2018-Jun-24 03:42 UTC.
Position N 38°46' E 001°26'.

Length 30 m; draft 2.7 m.

Type: Pleasure craft. MMSI: 224532980.

Date/timePositionNaut miles runAvg speedWind from/ knotsBaromVisibWave heightAir tempDewpointWater temp
2018-Jun-16 19:41N 38°46' E 001°26'9 0.3
2018-Jun-15 18:48N 38°55' E 001°28'0 0.0
2018-Jun-15 18:29N 38°55' E 001°28'0 0.0
2018-Jun-15 17:58N 38°55' E 001°28'2 0.1
2018-Jun-14 08:11N 38°53' E 001°27'1 7.3
2018-Jun-14 07:59N 38°54' E 001°28'0 0.9
2018-Jun-14 07:29N 38°55' E 001°28'0 0.0
2018-Jun-14 06:59N 38°55' E 001°28'0 0.0
2018-Jun-14 03:26N 38°55' E 001°28'0 0.0
2018-Jun-13 22:05N 38°55' E 001°28'0 0.0
2018-Jun-13 21:59N 38°55' E 001°28'0 0.0
2018-Jun-13 17:53N 38°55' E 001°28'0 0.0
2018-Jun-13 15:08N 38°55' E 001°28'0 0.0
2018-Jun-13 12:23N 38°55' E 001°28'0 0.0
2018-Jun-13 08:42N 38°55' E 001°28'0 0.0
2018-Jun-13 07:28N 38°55' E 001°28'0 0.0
2018-Jun-13 04:45N 38°55' E 001°28'0 0.0
2018-Jun-13 03:40N 38°55' E 001°28'0 0.0
2018-Jun-13 01:39N 38°55' E 001°28'0 0.0
2018-Jun-13 01:12N 38°55' E 001°28'0 0.0
2018-Jun-12 10:06N 38°55' E 001°28'0 0.0
2018-Jun-12 09:45N 38°55' E 001°28'0 0.0
2018-Jun-12 09:24N 38°55' E 001°28'0 0.0
2018-Jun-12 06:04N 38°55' E 001°28'0 0.2
2018-Jun-12 06:00N 38°55' E 001°28'0 0.0
2018-Jun-12 05:31N 38°55' E 001°28'0 0.0
2018-Jun-12 05:01N 38°55' E 001°28'0 0.0
2018-Jun-12 04:28N 38°55' E 001°28'0 0.0
2018-Jun-12 03:57N 38°55' E 001°28'0 0.0
2018-Jun-12 03:30N 38°55' E 001°28'0 0.0
2018-Jun-12 03:00N 38°55' E 001°28'0 0.0
2018-Jun-12 02:30N 38°55' E 001°28'0 0.0
2018-Jun-12 01:57N 38°55' E 001°28'0 0.0
2018-Jun-12 01:27N 38°55' E 001°28'0 0.0
2018-Jun-12 01:01N 38°55' E 001°28'0 0.0
2018-Jun-12 00:31N 38°55' E 001°28'0 0.0
2018-Jun-12 00:00N 38°55' E 001°28'0 0.0
2018-Jun-11 23:30N 38°55' E 001°28'0 0.0
2018-Jun-11 22:58N 38°55' E 001°28'0 0.0
2018-Jun-11 22:24N 38°55' E 001°28'0 0.0
2018-Jun-11 21:57N 38°55' E 001°28'0 0.0
2018-Jun-11 20:10N 38°55' E 001°28'0 0.0
2018-Jun-11 19:49N 38°55' E 001°28'0 0.0
2018-Jun-11 19:22N 38°55' E 001°28'0 0.0
2018-Jun-11 18:57N 38°55' E 001°28'0 0.0
2018-Jun-11 18:19N 38°55' E 001°28'0 0.0
2018-Jun-11 18:00N 38°55' E 001°28'0 0.0
2018-Jun-11 17:28N 38°55' E 001°28'0 0.0
2018-Jun-11 16:57N 38°55' E 001°28'0 0.0
2018-Jun-11 16:24N 38°55' E 001°28'0 0.0
2018-Jun-11 16:00N 38°55' E 001°28'0 0.0
2018-Jun-11 15:30N 38°55' E 001°28'0 0.0
2018-Jun-11 15:00N 38°55' E 001°28'0 0.0
2018-Jun-11 14:30N 38°55' E 001°28'0 0.0
2018-Jun-11 11:59N 38°55' E 001°28'0 0.0
2018-Jun-11 11:29N 38°55' E 001°28'0 0.0
2018-Jun-11 10:56N 38°55' E 001°28'0 0.0
2018-Jun-11 10:13N 38°55' E 001°28'2 6.1
2018-Jun-11 09:51N 38°52' E 001°28'3 8.0
2018-Jun-11 09:29N 38°50' E 001°29'  

Dump ship's entire track history